Uni-assure — 3FHV9 — position and weather

sailwx.info

Track history (hours):
 
Tides and Currents Weather Stations Pressure Air Temp Water Temp Dewpoint Dewpoint Depression Visibility Wind Speed Wind Dir Waves Ship Positions

Uni-assure

Last reported at 2017-Oct-20 05:00 UTC. Time now 2017-Oct-20 05:27 UTC.
Position N 44°13' E 037°53'.

Length 165 m; draft 6.4 m.

Type: Ship (hazmat cat D). MMSI: 357398000.

Date/timePositionNaut miles runAvg speedWind from/ knotsBaromVisibWave heightAir tempDewpointWater temp
2017-Oct-20 05:00N 44°13' E 037°53'0 0.8
2017-Oct-20 04:31N 44°13' E 037°53'0 0.8
2017-Oct-20 04:00N 44°13' E 037°54'0 0.9
2017-Oct-20 03:30N 44°12' E 037°54'4 7.7
2017-Oct-20 03:00N 44°09' E 037°57'815.4
2017-Oct-20 02:30N 44°02' E 037°59'815.6
2017-Oct-20 02:00N 43°56' E 038°07'815.9
2017-Oct-20 01:30N 43°52' E 038°17'815.9
2017-Oct-20 01:00N 43°47' E 038°26'816.0
2017-Oct-20 00:30N 43°43' E 038°35'816.1
2017-Oct-20 00:00N 43°38' E 038°44'816.1
2017-Oct-19 23:30N 43°33' E 038°53'815.8
2017-Oct-19 22:59N 43°29' E 039°02'815.7
2017-Oct-19 22:28N 43°24' E 039°11'715.5
2017-Oct-19 22:00N 43°20' E 039°20'815.9
2017-Oct-19 21:30N 43°16' E 039°28'  
2017-Oct-13 13:14N 40°59' E 028°60'31111.2
2017-Oct-12 09:24N 37°37' E 023°53'715.9
2017-Oct-12 08:59N 37°39' E 023°45'714.9
2017-Oct-12 08:30N 37°45' E 023°39'814.5
2017-Oct-12 07:56N 37°53' E 023°36'4 9.9
2017-Oct-12 07:30N 37°57' E 023°36'1 1.3
2017-Oct-12 06:59N 37°57' E 023°35'0 0.0
2017-Oct-12 06:29N 37°57' E 023°35'0 0.0
2017-Oct-12 05:59N 37°57' E 023°35'0 0.0
2017-Oct-12 05:29N 37°57' E 023°35'0 0.0
2017-Oct-12 04:59N 37°57' E 023°35'0 0.0
2017-Oct-12 04:11N 37°57' E 023°35'0 0.0
2017-Oct-12 03:59N 37°57' E 023°35'0 0.0
2017-Oct-12 03:05N 37°57' E 023°35'0 0.0
2017-Oct-12 02:59N 37°57' E 023°35'0 0.0
2017-Oct-12 02:29N 37°57' E 023°35'0 0.0
2017-Oct-12 01:53N 37°57' E 023°35'0 0.0
2017-Oct-12 00:36N 37°57' E 023°35'0 0.1
2017-Oct-12 00:23N 37°57' E 023°35'0 0.0
2017-Oct-11 23:59N 37°57' E 023°35'0 0.0
2017-Oct-11 23:29N 37°57' E 023°35'0 0.0
2017-Oct-11 22:44N 37°57' E 023°35'0 0.0
2017-Oct-11 22:29N 37°57' E 023°35'0 0.0
2017-Oct-11 21:56N 37°57' E 023°35'0 0.0
2017-Oct-11 21:20N 37°57' E 023°35'0 0.0
2017-Oct-11 20:38N 37°57' E 023°35'0 0.0
2017-Oct-11 20:29N 37°57' E 023°35'0 0.0
2017-Oct-11 19:59N 37°57' E 023°35'0 0.0
2017-Oct-11 19:17N 37°57' E 023°35'0 0.0
2017-Oct-11 19:00N 37°57' E 023°35'0 0.0
2017-Oct-11 18:29N 37°57' E 023°35'0 0.0
2017-Oct-11 17:59N 37°57' E 023°35'0 0.0
2017-Oct-11 17:29N 37°57' E 023°35'0 0.0
2017-Oct-11 16:59N 37°57' E 023°35'0 0.0
2017-Oct-10 23:59N 37°57' E 023°35'0 0.1
2017-Oct-10 23:29N 37°57' E 023°35'0 0.1
2017-Oct-10 22:59N 37°57' E 023°35'0 0.0
2017-Oct-10 22:29N 37°57' E 023°35'0 0.0
2017-Oct-10 21:59N 37°57' E 023°35'0 0.0
2017-Oct-10 21:26N 37°57' E 023°35'0 0.0
2017-Oct-10 20:59N 37°57' E 023°35'0 0.0
2017-Oct-10 20:29N 37°57' E 023°35'0 0.0
2017-Oct-10 19:59N 37°57' E 023°35'0 0.0
2017-Oct-10 19:29N 37°57' E 023°35'0 0.0
2017-Oct-10 18:59N 37°57' E 023°35'0 0.0
2017-Oct-10 18:29N 37°57' E 023°35'0 0.1
2017-Oct-10 17:59N 37°57' E 023°35'0 0.0
2017-Oct-10 17:29N 37°57' E 023°35'0 0.0
2017-Oct-10 16:59N 37°57' E 023°35'0 0.0
2017-Oct-10 16:29N 37°57' E 023°35'0 0.0
2017-Oct-10 15:59N 37°57' E 023°35'1 2.1
2017-Oct-10 15:31N 37°56' E 023°35'2 4.0
2017-Oct-10 15:00N 37°54' E 023°35'2 1.6
2017-Oct-10 13:47N 37°54' E 023°32'0 0.0
2017-Oct-10 13:29N 37°54' E 023°32'0 0.0
2017-Oct-10 12:59N 37°54' E 023°32'0 0.0
2017-Oct-10 12:26N 37°54' E 023°32'0 0.0
2017-Oct-10 11:59N 37°54' E 023°32'0 0.0
2017-Oct-10 11:29N 37°54' E 023°32'0 0.0
2017-Oct-10 10:59N 37°54' E 023°32'0 0.0
2017-Oct-10 10:29N 37°54' E 023°32'0 0.0
2017-Oct-10 09:59N 37°54' E 023°32'0 0.0
2017-Oct-10 09:29N 37°53' E 023°32'0 0.1
2017-Oct-10 08:59N 37°53' E 023°32'0 0.1
2017-Oct-10 08:29N 37°53' E 023°32'0 0.0
2017-Oct-10 07:59N 37°53' E 023°32'0 0.1
2017-Oct-10 07:29N 37°53' E 023°32'0 0.0
2017-Oct-10 06:59N 37°53' E 023°32'0 0.1
2017-Oct-10 06:29N 37°53' E 023°32'0 0.0
2017-Oct-10 05:59N 37°53' E 023°32'0 0.0
2017-Oct-10 05:29N 37°53' E 023°32'  
Track history (hours):
 
Tides and Currents Weather Stations Pressure Air Temp Water Temp Dewpoint Dewpoint Depression Visibility Wind Speed Wind Dir Waves Ship Positions

Uni-assure

Last reported at 2017-Oct-20 05:00 UTC. Time now 2017-Oct-20 05:27 UTC.
Position N 44°13' E 037°53'.

Length 165 m; draft 6.4 m.

Type: Ship (hazmat cat D). MMSI: 357398000.

Date/timePositionNaut miles runAvg speedWind from/ knotsBaromVisibWave heightAir tempDewpointWater temp
2017-Oct-20 05:00N 44°13' E 037°53'0 0.8
2017-Oct-20 04:31N 44°13' E 037°53'0 0.8
2017-Oct-20 04:00N 44°13' E 037°54'0 0.9
2017-Oct-20 03:30N 44°12' E 037°54'4 7.7
2017-Oct-20 03:00N 44°09' E 037°57'815.4
2017-Oct-20 02:30N 44°02' E 037°59'815.6
2017-Oct-20 02:00N 43°56' E 038°07'815.9
2017-Oct-20 01:30N 43°52' E 038°17'815.9
2017-Oct-20 01:00N 43°47' E 038°26'816.0
2017-Oct-20 00:30N 43°43' E 038°35'816.1
2017-Oct-20 00:00N 43°38' E 038°44'816.1
2017-Oct-19 23:30N 43°33' E 038°53'815.8
2017-Oct-19 22:59N 43°29' E 039°02'815.7
2017-Oct-19 22:28N 43°24' E 039°11'715.5
2017-Oct-19 22:00N 43°20' E 039°20'815.9
2017-Oct-19 21:30N 43°16' E 039°28'  
2017-Oct-13 13:14N 40°59' E 028°60'31111.2
2017-Oct-12 09:24N 37°37' E 023°53'715.9
2017-Oct-12 08:59N 37°39' E 023°45'714.9
2017-Oct-12 08:30N 37°45' E 023°39'814.5
2017-Oct-12 07:56N 37°53' E 023°36'4 9.9
2017-Oct-12 07:30N 37°57' E 023°36'1 1.3
2017-Oct-12 06:59N 37°57' E 023°35'0 0.0
2017-Oct-12 06:29N 37°57' E 023°35'0 0.0
2017-Oct-12 05:59N 37°57' E 023°35'0 0.0
2017-Oct-12 05:29N 37°57' E 023°35'0 0.0
2017-Oct-12 04:59N 37°57' E 023°35'0 0.0
2017-Oct-12 04:11N 37°57' E 023°35'0 0.0
2017-Oct-12 03:59N 37°57' E 023°35'0 0.0
2017-Oct-12 03:05N 37°57' E 023°35'0 0.0
2017-Oct-12 02:59N 37°57' E 023°35'0 0.0
2017-Oct-12 02:29N 37°57' E 023°35'0 0.0
2017-Oct-12 01:53N 37°57' E 023°35'0 0.0
2017-Oct-12 00:36N 37°57' E 023°35'0 0.1
2017-Oct-12 00:23N 37°57' E 023°35'0 0.0
2017-Oct-11 23:59N 37°57' E 023°35'0 0.0
2017-Oct-11 23:29N 37°57' E 023°35'0 0.0
2017-Oct-11 22:44N 37°57' E 023°35'0 0.0
2017-Oct-11 22:29N 37°57' E 023°35'0 0.0
2017-Oct-11 21:56N 37°57' E 023°35'0 0.0
2017-Oct-11 21:20N 37°57' E 023°35'0 0.0
2017-Oct-11 20:38N 37°57' E 023°35'0 0.0
2017-Oct-11 20:29N 37°57' E 023°35'0 0.0
2017-Oct-11 19:59N 37°57' E 023°35'0 0.0
2017-Oct-11 19:17N 37°57' E 023°35'0 0.0
2017-Oct-11 19:00N 37°57' E 023°35'0 0.0
2017-Oct-11 18:29N 37°57' E 023°35'0 0.0
2017-Oct-11 17:59N 37°57' E 023°35'0 0.0
2017-Oct-11 17:29N 37°57' E 023°35'0 0.0
2017-Oct-11 16:59N 37°57' E 023°35'0 0.0
2017-Oct-10 23:59N 37°57' E 023°35'0 0.1
2017-Oct-10 23:29N 37°57' E 023°35'0 0.1
2017-Oct-10 22:59N 37°57' E 023°35'0 0.0
2017-Oct-10 22:29N 37°57' E 023°35'0 0.0
2017-Oct-10 21:59N 37°57' E 023°35'0 0.0
2017-Oct-10 21:26N 37°57' E 023°35'0 0.0
2017-Oct-10 20:59N 37°57' E 023°35'0 0.0
2017-Oct-10 20:29N 37°57' E 023°35'0 0.0
2017-Oct-10 19:59N 37°57' E 023°35'0 0.0
2017-Oct-10 19:29N 37°57' E 023°35'0 0.0
2017-Oct-10 18:59N 37°57' E 023°35'0 0.0
2017-Oct-10 18:29N 37°57' E 023°35'0 0.1
2017-Oct-10 17:59N 37°57' E 023°35'0 0.0
2017-Oct-10 17:29N 37°57' E 023°35'0 0.0
2017-Oct-10 16:59N 37°57' E 023°35'0 0.0
2017-Oct-10 16:29N 37°57' E 023°35'0 0.0
2017-Oct-10 15:59N 37°57' E 023°35'1 2.1
2017-Oct-10 15:31N 37°56' E 023°35'2 4.0
2017-Oct-10 15:00N 37°54' E 023°35'2 1.6
2017-Oct-10 13:47N 37°54' E 023°32'0 0.0
2017-Oct-10 13:29N 37°54' E 023°32'0 0.0
2017-Oct-10 12:59N 37°54' E 023°32'0 0.0
2017-Oct-10 12:26N 37°54' E 023°32'0 0.0
2017-Oct-10 11:59N 37°54' E 023°32'0 0.0
2017-Oct-10 11:29N 37°54' E 023°32'0 0.0
2017-Oct-10 10:59N 37°54' E 023°32'0 0.0
2017-Oct-10 10:29N 37°54' E 023°32'0 0.0
2017-Oct-10 09:59N 37°54' E 023°32'0 0.0
2017-Oct-10 09:29N 37°53' E 023°32'0 0.1
2017-Oct-10 08:59N 37°53' E 023°32'0 0.1
2017-Oct-10 08:29N 37°53' E 023°32'0 0.0
2017-Oct-10 07:59N 37°53' E 023°32'0 0.1
2017-Oct-10 07:29N 37°53' E 023°32'0 0.0
2017-Oct-10 06:59N 37°53' E 023°32'0 0.1
2017-Oct-10 06:29N 37°53' E 023°32'0 0.0
2017-Oct-10 05:59N 37°53' E 023°32'0 0.0
2017-Oct-10 05:29N 37°53' E 023°32'  

Dump ship's entire track history